Le Boreal — FLSY — position and weather

sailwx.info

Track history (hours):
 
Tides and Currents Weather Stations Pressure Air Temp Water Temp Dewpoint Dewpoint Depression Visibility Wind Speed Wind Dir Waves Ship Positions

Le Boreal

Last reported at 2014-Jul-22 11:08 UTC. Time now 2014-Jul-22 13:24 UTC.
Position N 57°48' E 008°08'.

Length 142 m; draft 5 m.

Type: Passenger vessel. MMSI: 578000500.

Date/timePositionNaut miles runAvg speedWind from/ knotsBaromVisibWave heightAir tempDewpointWater temp
2014-Jul-22 11:08N 57°48' E 008°08'6613.2
2014-Jul-22 06:08N 57°49' E 010°12'813.1
2014-Jul-22 05:33N 57°48' E 010°26'1312.7
2014-Jul-22 04:33N 57°46' E 010°50'1413.7
2014-Jul-22 03:33N 57°36' E 011°08'1313.3
2014-Jul-22 02:33N 57°27' E 011°26'1413.9
2014-Jul-22 01:33N 57°14' E 011°35'1413.7
2014-Jul-22 00:33N 57°01' E 011°44'1414.0
2014-Jul-21 23:34N 56°48' E 011°52'1514.8
2014-Jul-21 22:32N 56°33' E 011°59'1414.2
2014-Jul-21 21:33N 56°20' E 012°05'1313.1
2014-Jul-21 20:33N 56°11' E 012°23'414.1
2014-Jul-21 20:18N 56°09' E 012°28'1114.7
2014-Jul-21 19:33N 56°01' E 012°41'1313.5
2014-Jul-21 18:33N 55°48' E 012°42'7 7.1
2014-Jul-21 17:33N 55°41' E 012°36'0 0.0
2014-Jul-21 16:33N 55°41' E 012°36'0 0.0
2014-Jul-21 15:32N 55°41' E 012°36'0 0.0
2014-Jul-21 14:32N 55°41' E 012°36'0 0.0
2014-Jul-21 13:32N 55°41' E 012°36'0 0.0
2014-Jul-21 12:32N 55°41' E 012°36'0 0.0
2014-Jul-21 11:32N 55°41' E 012°36'0 0.0
2014-Jul-21 10:32N 55°41' E 012°36'0 0.0
2014-Jul-21 09:32N 55°41' E 012°36'0 0.0
2014-Jul-21 08:32N 55°41' E 012°36'0 0.0
2014-Jul-21 07:32N 55°41' E 012°36'0 0.0
2014-Jul-21 06:32N 55°41' E 012°36'0 0.0
2014-Jul-21 05:30N 55°41' E 012°36'1 1.4
2014-Jul-21 04:33N 55°42' E 012°38'1211.6
2014-Jul-21 03:33N 55°31' E 012°43'1211.7
2014-Jul-21 02:33N 55°19' E 012°42'1212.2
2014-Jul-21 01:33N 55°15' E 013°02'1413.6
2014-Jul-21 00:32N 55°14' E 013°27'1313.7
2014-Jul-20 23:33N 55°14' E 013°50'1413.9
2014-Jul-20 22:33N 55°13' E 014°14'1313.3
2014-Jul-20 21:33N 55°23' E 014°31'1313.1
2014-Jul-20 20:33N 55°31' E 014°49'1313.3
2014-Jul-20 19:33N 55°38' E 015°09'1413.5
2014-Jul-20 18:33N 55°44' E 015°30'1413.7
2014-Jul-20 17:33N 55°51' E 015°51'1413.7
2014-Jul-20 16:33N 55°58' E 016°12'18613.8
2014-Jul-20 03:03N 58°03' E 020°25'167 7.1
2014-Jul-19 03:30N 59°39' E 024°49'2412.4
2014-Jul-19 01:33N 59°50' E 025°32'2914.4
2014-Jul-18 23:34N 60°00' E 026°26'1514.8
2014-Jul-18 22:34N 59°60' E 026°55'1514.6
2014-Jul-18 21:33N 60°05' E 027°23'1514.8
2014-Jul-18 20:33N 60°11' E 027°49'7512.5
2014-Jul-18 14:33N 59°55' E 030°16'1 1.2
2014-Jul-18 13:32N 59°56' E 030°17'0 0.0
2014-Jul-18 12:32N 59°56' E 030°17'0 0.0
2014-Jul-18 11:32N 59°56' E 030°17'0 0.0
2014-Jul-18 10:32N 59°56' E 030°17'0 0.0
2014-Jul-18 09:29N 59°56' E 030°17'0 0.0
2014-Jul-18 08:32N 59°56' E 030°17'0 0.0
2014-Jul-18 07:32N 59°56' E 030°17'0 0.0
2014-Jul-18 06:32N 59°56' E 030°17'0 0.0
2014-Jul-18 05:32N 59°56' E 030°17'0 0.0
2014-Jul-18 04:32N 59°56' E 030°17'0 0.0
2014-Jul-18 03:32N 59°56' E 030°17'0 0.0
2014-Jul-18 02:32N 59°56' E 030°17'0 0.0
2014-Jul-18 01:32N 59°56' E 030°17'0 0.0
2014-Jul-18 00:32N 59°56' E 030°17'0 0.0
2014-Jul-17 23:29N 59°56' E 030°17'0 0.0
2014-Jul-17 22:32N 59°56' E 030°17'0 0.0
2014-Jul-17 21:32N 59°56' E 030°17'0 0.0
2014-Jul-17 20:29N 59°56' E 030°17'0 0.0
2014-Jul-17 19:32N 59°56' E 030°17'0 0.0
2014-Jul-17 18:32N 59°56' E 030°17'0 0.0
2014-Jul-17 17:32N 59°56' E 030°17'0 0.0
2014-Jul-17 16:32N 59°56' E 030°17'0 0.0
2014-Jul-17 15:32N 59°56' E 030°17'0 0.0
2014-Jul-17 14:32N 59°56' E 030°17'0 0.0
2014-Jul-17 13:32N 59°56' E 030°17'0 0.0
2014-Jul-17 12:32N 59°56' E 030°17'0 0.0
2014-Jul-17 07:29N 59°56' E 030°17'0 0.0
2014-Jul-17 06:32N 59°56' E 030°17'0 0.0
2014-Jul-17 05:32N 59°56' E 030°17'0 0.0
2014-Jul-17 04:32N 59°56' E 030°17'0 0.0
2014-Jul-17 03:32N 59°56' E 030°17'0 0.0
2014-Jul-17 02:32N 59°56' E 030°17'0 0.0
2014-Jul-17 01:32N 59°56' E 030°17'0 0.0
2014-Jul-17 00:32N 59°56' E 030°17'0 0.0
2014-Jul-16 23:32N 59°56' E 030°17'0 0.0
2014-Jul-16 22:32N 59°56' E 030°17'0 0.0
2014-Jul-16 21:32N 59°56' E 030°17'0 0.0
2014-Jul-16 20:32N 59°56' E 030°17'0 0.0
2014-Jul-16 19:32N 59°56' E 030°17'0 0.0
2014-Jul-16 18:32N 59°56' E 030°17'0 0.0
2014-Jul-16 17:26N 59°56' E 030°17'0 0.0
2014-Jul-16 16:32N 59°56' E 030°17'0 0.0
2014-Jul-16 15:32N 59°56' E 030°17'0 0.0
2014-Jul-16 14:32N 59°56' E 030°17'0 0.0
2014-Jul-16 13:32N 59°56' E 030°17'0 0.0
2014-Jul-16 12:29N 59°56' E 030°17'0 0.0
2014-Jul-16 11:29N 59°56' E 030°17'0 0.0
2014-Jul-16 10:32N 59°56' E 030°17'0 0.0
2014-Jul-16 09:32N 59°56' E 030°17'0 0.0
2014-Jul-16 08:32N 59°56' E 030°17'0 0.0
2014-Jul-16 07:32N 59°56' E 030°17'0 0.0
2014-Jul-16 06:26N 59°56' E 030°17'0 0.0
2014-Jul-16 05:32N 59°56' E 030°17'0 0.0
2014-Jul-16 04:32N 59°56' E 030°17'1 0.8
2014-Jul-16 03:33N 59°55' E 030°16'9012.5
2014-Jul-15 20:23N 60°02' E 027°18'1215.0
2014-Jul-15 19:33N 59°59' E 026°54'1515.3
2014-Jul-15 18:33N 59°57' E 026°23'4310.8
2014-Jul-15 14:33N 60°09' E 024°60'0 0.0
2014-Jul-15 09:33N 60°09' E 024°60'4711.7
2014-Jul-15 05:30N 59°37' E 023°50'17312.2
2014-Jul-14 15:21N 59°20' E 018°11'3 3.7
2014-Jul-14 14:29N 59°19' E 018°05'0 0.0
2014-Jul-14 13:23N 59°19' E 018°05'0 0.0
2014-Jul-14 12:29N 59°19' E 018°05'0 0.0
2014-Jul-14 11:32N 59°19' E 018°05'0 0.0
2014-Jul-14 09:32N 59°19' E 018°05'0 0.0
2014-Jul-14 08:20N 59°19' E 018°05'0 0.0
2014-Jul-14 07:32N 59°19' E 018°05'0 0.0
2014-Jul-14 06:14N 59°19' E 018°05'0 0.0
2014-Jul-14 05:33N 59°19' E 018°05'7 7.0
2014-Jul-14 04:31N 59°23' E 018°18'15611.1
2014-Jul-13 14:29N 59°39' E 023°24'1313.5
2014-Jul-13 13:33N 59°43' E 023°48'84 6.0
2014-Jul-12 23:33N 60°01' E 026°32'11312.2
2014-Jul-12 14:18N 59°56' E 030°16'1 0.8
2014-Jul-12 13:33N 59°56' E 030°17'0 0.0
2014-Jul-12 12:33N 59°56' E 030°17'0 0.0
2014-Jul-12 11:30N 59°56' E 030°17'  
Track history (hours):
 
Tides and Currents Weather Stations Pressure Air Temp Water Temp Dewpoint Dewpoint Depression Visibility Wind Speed Wind Dir Waves Ship Positions

Le Boreal

Last reported at 2014-Jul-22 11:08 UTC. Time now 2014-Jul-22 13:24 UTC.
Position N 57°48' E 008°08'.

Length 142 m; draft 5 m.

Type: Passenger vessel. MMSI: 578000500.

Date/timePositionNaut miles runAvg speedWind from/ knotsBaromVisibWave heightAir tempDewpointWater temp
2014-Jul-22 11:08N 57°48' E 008°08'6613.2
2014-Jul-22 06:08N 57°49' E 010°12'813.1
2014-Jul-22 05:33N 57°48' E 010°26'1312.7
2014-Jul-22 04:33N 57°46' E 010°50'1413.7
2014-Jul-22 03:33N 57°36' E 011°08'1313.3
2014-Jul-22 02:33N 57°27' E 011°26'1413.9
2014-Jul-22 01:33N 57°14' E 011°35'1413.7
2014-Jul-22 00:33N 57°01' E 011°44'1414.0
2014-Jul-21 23:34N 56°48' E 011°52'1514.8
2014-Jul-21 22:32N 56°33' E 011°59'1414.2
2014-Jul-21 21:33N 56°20' E 012°05'1313.1
2014-Jul-21 20:33N 56°11' E 012°23'414.1
2014-Jul-21 20:18N 56°09' E 012°28'1114.7
2014-Jul-21 19:33N 56°01' E 012°41'1313.5
2014-Jul-21 18:33N 55°48' E 012°42'7 7.1
2014-Jul-21 17:33N 55°41' E 012°36'0 0.0
2014-Jul-21 16:33N 55°41' E 012°36'0 0.0
2014-Jul-21 15:32N 55°41' E 012°36'0 0.0
2014-Jul-21 14:32N 55°41' E 012°36'0 0.0
2014-Jul-21 13:32N 55°41' E 012°36'0 0.0
2014-Jul-21 12:32N 55°41' E 012°36'0 0.0
2014-Jul-21 11:32N 55°41' E 012°36'0 0.0
2014-Jul-21 10:32N 55°41' E 012°36'0 0.0
2014-Jul-21 09:32N 55°41' E 012°36'0 0.0
2014-Jul-21 08:32N 55°41' E 012°36'0 0.0
2014-Jul-21 07:32N 55°41' E 012°36'0 0.0
2014-Jul-21 06:32N 55°41' E 012°36'0 0.0
2014-Jul-21 05:30N 55°41' E 012°36'1 1.4
2014-Jul-21 04:33N 55°42' E 012°38'1211.6
2014-Jul-21 03:33N 55°31' E 012°43'1211.7
2014-Jul-21 02:33N 55°19' E 012°42'1212.2
2014-Jul-21 01:33N 55°15' E 013°02'1413.6
2014-Jul-21 00:32N 55°14' E 013°27'1313.7
2014-Jul-20 23:33N 55°14' E 013°50'1413.9
2014-Jul-20 22:33N 55°13' E 014°14'1313.3
2014-Jul-20 21:33N 55°23' E 014°31'1313.1
2014-Jul-20 20:33N 55°31' E 014°49'1313.3
2014-Jul-20 19:33N 55°38' E 015°09'1413.5
2014-Jul-20 18:33N 55°44' E 015°30'1413.7
2014-Jul-20 17:33N 55°51' E 015°51'1413.7
2014-Jul-20 16:33N 55°58' E 016°12'18613.8
2014-Jul-20 03:03N 58°03' E 020°25'167 7.1
2014-Jul-19 03:30N 59°39' E 024°49'2412.4
2014-Jul-19 01:33N 59°50' E 025°32'2914.4
2014-Jul-18 23:34N 60°00' E 026°26'1514.8
2014-Jul-18 22:34N 59°60' E 026°55'1514.6
2014-Jul-18 21:33N 60°05' E 027°23'1514.8
2014-Jul-18 20:33N 60°11' E 027°49'7512.5
2014-Jul-18 14:33N 59°55' E 030°16'1 1.2
2014-Jul-18 13:32N 59°56' E 030°17'0 0.0
2014-Jul-18 12:32N 59°56' E 030°17'0 0.0
2014-Jul-18 11:32N 59°56' E 030°17'0 0.0
2014-Jul-18 10:32N 59°56' E 030°17'0 0.0
2014-Jul-18 09:29N 59°56' E 030°17'0 0.0
2014-Jul-18 08:32N 59°56' E 030°17'0 0.0
2014-Jul-18 07:32N 59°56' E 030°17'0 0.0
2014-Jul-18 06:32N 59°56' E 030°17'0 0.0
2014-Jul-18 05:32N 59°56' E 030°17'0 0.0
2014-Jul-18 04:32N 59°56' E 030°17'0 0.0
2014-Jul-18 03:32N 59°56' E 030°17'0 0.0
2014-Jul-18 02:32N 59°56' E 030°17'0 0.0
2014-Jul-18 01:32N 59°56' E 030°17'0 0.0
2014-Jul-18 00:32N 59°56' E 030°17'0 0.0
2014-Jul-17 23:29N 59°56' E 030°17'0 0.0
2014-Jul-17 22:32N 59°56' E 030°17'0 0.0
2014-Jul-17 21:32N 59°56' E 030°17'0 0.0
2014-Jul-17 20:29N 59°56' E 030°17'0 0.0
2014-Jul-17 19:32N 59°56' E 030°17'0 0.0
2014-Jul-17 18:32N 59°56' E 030°17'0 0.0
2014-Jul-17 17:32N 59°56' E 030°17'0 0.0
2014-Jul-17 16:32N 59°56' E 030°17'0 0.0
2014-Jul-17 15:32N 59°56' E 030°17'0 0.0
2014-Jul-17 14:32N 59°56' E 030°17'0 0.0
2014-Jul-17 13:32N 59°56' E 030°17'0 0.0
2014-Jul-17 12:32N 59°56' E 030°17'0 0.0
2014-Jul-17 07:29N 59°56' E 030°17'0 0.0
2014-Jul-17 06:32N 59°56' E 030°17'0 0.0
2014-Jul-17 05:32N 59°56' E 030°17'0 0.0
2014-Jul-17 04:32N 59°56' E 030°17'0 0.0
2014-Jul-17 03:32N 59°56' E 030°17'0 0.0
2014-Jul-17 02:32N 59°56' E 030°17'0 0.0
2014-Jul-17 01:32N 59°56' E 030°17'0 0.0
2014-Jul-17 00:32N 59°56' E 030°17'0 0.0
2014-Jul-16 23:32N 59°56' E 030°17'0 0.0
2014-Jul-16 22:32N 59°56' E 030°17'0 0.0
2014-Jul-16 21:32N 59°56' E 030°17'0 0.0
2014-Jul-16 20:32N 59°56' E 030°17'0 0.0
2014-Jul-16 19:32N 59°56' E 030°17'0 0.0
2014-Jul-16 18:32N 59°56' E 030°17'0 0.0
2014-Jul-16 17:26N 59°56' E 030°17'0 0.0
2014-Jul-16 16:32N 59°56' E 030°17'0 0.0
2014-Jul-16 15:32N 59°56' E 030°17'0 0.0
2014-Jul-16 14:32N 59°56' E 030°17'0 0.0
2014-Jul-16 13:32N 59°56' E 030°17'0 0.0
2014-Jul-16 12:29N 59°56' E 030°17'0 0.0
2014-Jul-16 11:29N 59°56' E 030°17'0 0.0
2014-Jul-16 10:32N 59°56' E 030°17'0 0.0
2014-Jul-16 09:32N 59°56' E 030°17'0 0.0
2014-Jul-16 08:32N 59°56' E 030°17'0 0.0
2014-Jul-16 07:32N 59°56' E 030°17'0 0.0
2014-Jul-16 06:26N 59°56' E 030°17'0 0.0
2014-Jul-16 05:32N 59°56' E 030°17'0 0.0
2014-Jul-16 04:32N 59°56' E 030°17'1 0.8
2014-Jul-16 03:33N 59°55' E 030°16'9012.5
2014-Jul-15 20:23N 60°02' E 027°18'1215.0
2014-Jul-15 19:33N 59°59' E 026°54'1515.3
2014-Jul-15 18:33N 59°57' E 026°23'4310.8
2014-Jul-15 14:33N 60°09' E 024°60'0 0.0
2014-Jul-15 09:33N 60°09' E 024°60'4711.7
2014-Jul-15 05:30N 59°37' E 023°50'17312.2
2014-Jul-14 15:21N 59°20' E 018°11'3 3.7
2014-Jul-14 14:29N 59°19' E 018°05'0 0.0
2014-Jul-14 13:23N 59°19' E 018°05'0 0.0
2014-Jul-14 12:29N 59°19' E 018°05'0 0.0
2014-Jul-14 11:32N 59°19' E 018°05'0 0.0
2014-Jul-14 09:32N 59°19' E 018°05'0 0.0
2014-Jul-14 08:20N 59°19' E 018°05'0 0.0
2014-Jul-14 07:32N 59°19' E 018°05'0 0.0
2014-Jul-14 06:14N 59°19' E 018°05'0 0.0
2014-Jul-14 05:33N 59°19' E 018°05'7 7.0
2014-Jul-14 04:31N 59°23' E 018°18'15611.1
2014-Jul-13 14:29N 59°39' E 023°24'1313.5
2014-Jul-13 13:33N 59°43' E 023°48'84 6.0
2014-Jul-12 23:33N 60°01' E 026°32'11312.2
2014-Jul-12 14:18N 59°56' E 030°16'1 0.8
2014-Jul-12 13:33N 59°56' E 030°17'0 0.0
2014-Jul-12 12:33N 59°56' E 030°17'0 0.0
2014-Jul-12 11:30N 59°56' E 030°17'  

Dump ship's entire track history